sensor_id;sensor_type;location;lat;lon;timestamp;P1;durP1;ratioP1;P2;durP2;ratioP2
68089;SDS011;54880;50.986;6.990;2023-06-26T00:01:59;11.83;;;7.23;;
68089;SDS011;54880;50.986;6.990;2023-06-26T00:04:24;11.57;;;7.53;;
68089;SDS011;54880;50.986;6.990;2023-06-26T00:06:50;10.77;;;7.80;;
68089;SDS011;54880;50.986;6.990;2023-06-26T00:09:15;11.80;;;7.87;;
68089;SDS011;54880;50.986;6.990;2023-06-26T00:11:40;10.43;;;6.77;;
68089;SDS011;54880;50.986;6.990;2023-06-26T00:14:05;11.53;;;7.10;;
68089;SDS011;54880;50.986;6.990;2023-06-26T00:16:31;11.60;;;7.40;;
68089;SDS011;54880;50.986;6.990;2023-06-26T00:18:57;13.27;;;7.65;;
68089;SDS011;54880;50.986;6.990;2023-06-26T00:21:24;11.50;;;6.97;;
68089;SDS011;54880;50.986;6.990;2023-06-26T00:23:49;11.95;;;6.82;;
68089;SDS011;54880;50.986;6.990;2023-06-26T00:26:14;12.17;;;7.17;;
68089;SDS011;54880;50.986;6.990;2023-06-26T00:28:40;12.13;;;7.20;;
68089;SDS011;54880;50.986;6.990;2023-06-26T00:31:05;10.97;;;7.00;;
68089;SDS011;54880;50.986;6.990;2023-06-26T00:33:30;11.03;;;6.97;;
68089;SDS011;54880;50.986;6.990;2023-06-26T00:35:56;12.25;;;7.28;;
68089;SDS011;54880;50.986;6.990;2023-06-26T00:38:21;11.98;;;7.05;;
68089;SDS011;54880;50.986;6.990;2023-06-26T00:40:46;10.50;;;6.50;;
68089;SDS011;54880;50.986;6.990;2023-06-26T00:43:12;14.83;;;6.90;;
68089;SDS011;54880;50.986;6.990;2023-06-26T00:45:37;11.23;;;7.10;;
68089;SDS011;54880;50.986;6.990;2023-06-26T00:48:02;12.70;;;7.17;;
68089;SDS011;54880;50.986;6.990;2023-06-26T00:50:28;14.97;;;7.33;;
68089;SDS011;54880;50.986;6.990;2023-06-26T00:52:54;11.47;;;7.53;;
68089;SDS011;54880;50.986;6.990;2023-06-26T00:55:22;11.15;;;7.43;;
68089;SDS011;54880;50.986;6.990;2023-06-26T00:57:47;11.93;;;6.93;;
68089;SDS011;54880;50.986;6.990;2023-06-26T01:00:13;11.27;;;7.43;;
68089;SDS011;54880;50.986;6.990;2023-06-26T01:02:38;10.17;;;6.87;;
68089;SDS011;54880;50.986;6.990;2023-06-26T01:05:04;12.30;;;7.30;;
68089;SDS011;54880;50.986;6.990;2023-06-26T01:07:34;11.10;;;7.22;;
68089;SDS011;54880;50.986;6.990;2023-06-26T01:10:03;11.38;;;7.15;;
68089;SDS011;54880;50.986;6.990;2023-06-26T01:12:30;11.32;;;7.40;;
68089;SDS011;54880;50.986;6.990;2023-06-26T01:14:55;11.93;;;7.37;;
68089;SDS011;54880;50.986;6.990;2023-06-26T01:17:20;12.03;;;7.33;;
68089;SDS011;54880;50.986;6.990;2023-06-26T01:19:46;11.63;;;7.45;;
68089;SDS011;54880;50.986;6.990;2023-06-26T01:25:19;12.55;;;7.40;;
68089;SDS011;54880;50.986;6.990;2023-06-26T01:27:43;12.20;;;7.47;;
68089;SDS011;54880;50.986;6.990;2023-06-26T01:30:09;13.05;;;7.05;;
68089;SDS011;54880;50.986;6.990;2023-06-26T01:32:35;11.10;;;7.45;;
68089;SDS011;54880;50.986;6.990;2023-06-26T01:35:01;10.90;;;7.23;;
68089;SDS011;54880;50.986;6.990;2023-06-26T01:37:28;11.32;;;7.32;;
68089;SDS011;54880;50.986;6.990;2023-06-26T01:39:54;12.53;;;7.63;;
68089;SDS011;54880;50.986;6.990;2023-06-26T01:42:19;12.83;;;7.33;;
68089;SDS011;54880;50.986;6.990;2023-06-26T01:44:45;11.93;;;7.05;;
68089;SDS011;54880;50.986;6.990;2023-06-26T01:47:10;13.40;;;7.63;;
68089;SDS011;54880;50.986;6.990;2023-06-26T01:54:30;10.57;;;7.18;;
68089;SDS011;54880;50.986;6.990;2023-06-26T01:56:58;11.32;;;7.40;;
68089;SDS011;54880;50.986;6.990;2023-06-26T01:59:24;13.02;;;7.20;;
68089;SDS011;54880;50.986;6.990;2023-06-26T02:01:52;12.30;;;8.00;;
68089;SDS011;54880;50.986;6.990;2023-06-26T02:04:17;13.13;;;7.07;;
68089;SDS011;54880;50.986;6.990;2023-06-26T02:06:42;11.25;;;7.10;;
68089;SDS011;54880;50.986;6.990;2023-06-26T02:09:07;10.35;;;7.15;;
68089;SDS011;54880;50.986;6.990;2023-06-26T02:11:33;11.55;;;7.45;;
68089;SDS011;54880;50.986;6.990;2023-06-26T02:13:59;12.52;;;7.40;;
68089;SDS011;54880;50.986;6.990;2023-06-26T02:16:24;12.77;;;7.00;;
68089;SDS011;54880;50.986;6.990;2023-06-26T02:18:49;11.47;;;7.13;;
68089;SDS011;54880;50.986;6.990;2023-06-26T02:21:15;9.63;;;6.33;;
68089;SDS011;54880;50.986;6.990;2023-06-26T02:23:40;10.90;;;6.97;;
68089;SDS011;54880;50.986;6.990;2023-06-26T02:26:05;11.10;;;7.23;;
68089;SDS011;54880;50.986;6.990;2023-06-26T02:28:30;11.23;;;7.10;;
68089;SDS011;54880;50.986;6.990;2023-06-26T02:30:56;13.87;;;7.47;;
68089;SDS011;54880;50.986;6.990;2023-06-26T02:33:23;11.05;;;6.93;;
68089;SDS011;54880;50.986;6.990;2023-06-26T02:35:48;10.97;;;6.73;;
68089;SDS011;54880;50.986;6.990;2023-06-26T02:38:15;10.87;;;6.30;;
68089;SDS011;54880;50.986;6.990;2023-06-26T02:40:40;10.68;;;6.68;;
68089;SDS011;54880;50.986;6.990;2023-06-26T02:43:06;13.83;;;7.30;;
68089;SDS011;54880;50.986;6.990;2023-06-26T02:45:31;10.90;;;7.07;;
68089;SDS011;54880;50.986;6.990;2023-06-26T02:47:57;10.80;;;6.90;;
68089;SDS011;54880;50.986;6.990;2023-06-26T02:50:22;10.70;;;6.40;;
68089;SDS011;54880;50.986;6.990;2023-06-26T02:53:01;10.60;;;6.97;;
68089;SDS011;54880;50.986;6.990;2023-06-26T02:55:27;12.15;;;7.63;;
68089;SDS011;54880;50.986;6.990;2023-06-26T02:57:53;10.95;;;6.78;;
68089;SDS011;54880;50.986;6.990;2023-06-26T03:00:18;12.93;;;7.10;;
68089;SDS011;54880;50.986;6.990;2023-06-26T03:02:48;12.55;;;7.35;;
68089;SDS011;54880;50.986;6.990;2023-06-26T03:05:17;10.52;;;6.72;;
68089;SDS011;54880;50.986;6.990;2023-06-26T03:07:43;11.55;;;7.30;;
68089;SDS011;54880;50.986;6.990;2023-06-26T03:10:09;12.30;;;7.25;;
68089;SDS011;54880;50.986;6.990;2023-06-26T03:12:34;12.73;;;7.27;;
68089;SDS011;54880;50.986;6.990;2023-06-26T03:15:00;12.47;;;6.83;;
68089;SDS011;54880;50.986;6.990;2023-06-26T03:17:25;15.40;;;7.30;;
68089;SDS011;54880;50.986;6.990;2023-06-26T03:19:53;12.15;;;6.55;;
68089;SDS011;54880;50.986;6.990;2023-06-26T03:22:21;12.18;;;7.18;;
68089;SDS011;54880;50.986;6.990;2023-06-26T03:24:46;11.50;;;7.33;;
68089;SDS011;54880;50.986;6.990;2023-06-26T03:27:12;10.32;;;6.82;;
68089;SDS011;54880;50.986;6.990;2023-06-26T03:29:38;12.03;;;7.10;;
68089;SDS011;54880;50.986;6.990;2023-06-26T03:32:03;11.37;;;6.43;;
68089;SDS011;54880;50.986;6.990;2023-06-26T03:34:29;11.05;;;6.25;;
68089;SDS011;54880;50.986;6.990;2023-06-26T03:36:54;12.17;;;7.00;;
68089;SDS011;54880;50.986;6.990;2023-06-26T03:39:19;11.37;;;6.30;;
68089;SDS011;54880;50.986;6.990;2023-06-26T03:41:45;11.10;;;6.73;;
68089;SDS011;54880;50.986;6.990;2023-06-26T03:44:10;10.30;;;6.13;;
68089;SDS011;54880;50.986;6.990;2023-06-26T03:46:44;11.35;;;6.38;;
68089;SDS011;54880;50.986;6.990;2023-06-26T03:49:09;11.33;;;5.97;;
68089;SDS011;54880;50.986;6.990;2023-06-26T03:51:36;9.90;;;6.18;;
68089;SDS011;54880;50.986;6.990;2023-06-26T03:54:01;10.30;;;5.57;;
68089;SDS011;54880;50.986;6.990;2023-06-26T03:56:26;9.97;;;6.10;;
68089;SDS011;54880;50.986;6.990;2023-06-26T03:58:51;10.83;;;6.20;;
68089;SDS011;54880;50.986;6.990;2023-06-26T04:01:17;10.50;;;6.07;;
68089;SDS011;54880;50.986;6.990;2023-06-26T04:03:43;12.07;;;6.35;;
68089;SDS011;54880;50.986;6.990;2023-06-26T04:06:10;10.60;;;5.83;;
68089;SDS011;54880;50.986;6.990;2023-06-26T04:08:35;9.38;;;5.72;;
68089;SDS011;54880;50.986;6.990;2023-06-26T04:11:01;11.48;;;6.25;;
68089;SDS011;54880;50.986;6.990;2023-06-26T04:13:26;12.07;;;6.32;;
68089;SDS011;54880;50.986;6.990;2023-06-26T04:15:51;10.23;;;5.70;;
68089;SDS011;54880;50.986;6.990;2023-06-26T04:18:16;10.90;;;6.50;;
68089;SDS011;54880;50.986;6.990;2023-06-26T04:21:03;10.63;;;6.50;;
68089;SDS011;54880;50.986;6.990;2023-06-26T04:23:29;10.93;;;5.40;;
68089;SDS011;54880;50.986;6.990;2023-06-26T04:25:54;12.70;;;6.20;;
68089;SDS011;54880;50.986;6.990;2023-06-26T04:28:19;11.90;;;5.80;;
68089;SDS011;54880;50.986;6.990;2023-06-26T04:30:44;9.77;;;5.63;;
68089;SDS011;54880;50.986;6.990;2023-06-26T04:33:10;11.33;;;5.73;;
68089;SDS011;54880;50.986;6.990;2023-06-26T04:35:37;12.43;;;5.70;;
68089;SDS011;54880;50.986;6.990;2023-06-26T04:38:02;9.83;;;5.13;;
68089;SDS011;54880;50.986;6.990;2023-06-26T04:40:27;10.77;;;5.63;;
68089;SDS011;54880;50.986;6.990;2023-06-26T04:42:52;11.27;;;5.53;;
68089;SDS011;54880;50.986;6.990;2023-06-26T04:45:18;10.73;;;6.03;;
68089;SDS011;54880;50.986;6.990;2023-06-26T04:47:43;10.07;;;5.67;;
68089;SDS011;54880;50.986;6.990;2023-06-26T04:50:08;13.67;;;5.70;;
68089;SDS011;54880;50.986;6.990;2023-06-26T04:52:34;10.10;;;5.43;;
68089;SDS011;54880;50.986;6.990;2023-06-26T04:54:59;10.03;;;5.00;;
68089;SDS011;54880;50.986;6.990;2023-06-26T04:57:24;10.90;;;5.30;;
68089;SDS011;54880;50.986;6.990;2023-06-26T04:59:50;10.50;;;4.93;;
68089;SDS011;54880;50.986;6.990;2023-06-26T05:02:15;12.87;;;5.17;;
68089;SDS011;54880;50.986;6.990;2023-06-26T05:04:40;12.00;;;5.20;;
68089;SDS011;54880;50.986;6.990;2023-06-26T05:07:07;11.98;;;5.32;;
68089;SDS011;54880;50.986;6.990;2023-06-26T05:09:32;12.23;;;5.07;;
68089;SDS011;54880;50.986;6.990;2023-06-26T05:11:57;10.67;;;4.63;;
68089;SDS011;54880;50.986;6.990;2023-06-26T05:14:23;9.17;;;4.90;;
68089;SDS011;54880;50.986;6.990;2023-06-26T05:16:48;10.97;;;5.10;;
68089;SDS011;54880;50.986;6.990;2023-06-26T05:19:13;12.10;;;4.67;;
68089;SDS011;54880;50.986;6.990;2023-06-26T05:21:38;10.57;;;4.93;;
68089;SDS011;54880;50.986;6.990;2023-06-26T05:24:04;12.93;;;4.90;;
68089;SDS011;54880;50.986;6.990;2023-06-26T05:26:30;10.82;;;5.00;;
68089;SDS011;54880;50.986;6.990;2023-06-26T05:28:55;11.30;;;4.60;;
68089;SDS011;54880;50.986;6.990;2023-06-26T05:31:21;11.57;;;4.70;;
68089;SDS011;54880;50.986;6.990;2023-06-26T05:33:46;10.03;;;4.47;;
68089;SDS011;54880;50.986;6.990;2023-06-26T05:36:12;10.55;;;5.07;;
68089;SDS011;54880;50.986;6.990;2023-06-26T05:38:38;9.75;;;5.00;;
68089;SDS011;54880;50.986;6.990;2023-06-26T05:41:04;9.07;;;4.70;;
68089;SDS011;54880;50.986;6.990;2023-06-26T05:43:29;9.13;;;4.57;;
68089;SDS011;54880;50.986;6.990;2023-06-26T05:45:54;9.40;;;4.50;;
68089;SDS011;54880;50.986;6.990;2023-06-26T05:48:19;8.97;;;4.70;;
68089;SDS011;54880;50.986;6.990;2023-06-26T05:50:45;9.27;;;4.70;;
68089;SDS011;54880;50.986;6.990;2023-06-26T05:53:10;9.17;;;4.80;;
68089;SDS011;54880;50.986;6.990;2023-06-26T05:55:36;9.07;;;5.00;;
68089;SDS011;54880;50.986;6.990;2023-06-26T05:58:02;10.82;;;4.65;;
68089;SDS011;54880;50.986;6.990;2023-06-26T06:00:27;9.35;;;4.72;;
68089;SDS011;54880;50.986;6.990;2023-06-26T06:02:53;11.13;;;4.40;;
68089;SDS011;54880;50.986;6.990;2023-06-26T06:05:19;10.00;;;5.13;;
68089;SDS011;54880;50.986;6.990;2023-06-26T06:07:45;12.10;;;4.67;;
68089;SDS011;54880;50.986;6.990;2023-06-26T06:10:10;13.17;;;4.77;;
68089;SDS011;54880;50.986;6.990;2023-06-26T06:12:35;12.47;;;5.17;;
68089;SDS011;54880;50.986;6.990;2023-06-26T06:15:00;11.27;;;4.70;;
68089;SDS011;54880;50.986;6.990;2023-06-26T06:17:26;10.70;;;4.73;;
68089;SDS011;54880;50.986;6.990;2023-06-26T06:19:51;14.00;;;5.50;;
68089;SDS011;54880;50.986;6.990;2023-06-26T06:22:16;11.43;;;5.53;;
68089;SDS011;54880;50.986;6.990;2023-06-26T06:24:42;11.68;;;4.55;;
68089;SDS011;54880;50.986;6.990;2023-06-26T06:27:08;11.30;;;5.00;;
68089;SDS011;54880;50.986;6.990;2023-06-26T06:29:34;12.13;;;5.13;;
68089;SDS011;54880;50.986;6.990;2023-06-26T06:31:59;13.83;;;4.90;;
68089;SDS011;54880;50.986;6.990;2023-06-26T06:34:24;14.30;;;4.93;;
68089;SDS011;54880;50.986;6.990;2023-06-26T06:36:49;12.70;;;4.83;;
68089;SDS011;54880;50.986;6.990;2023-06-26T06:39:15;10.27;;;4.43;;
68089;SDS011;54880;50.986;6.990;2023-06-26T06:41:40;10.10;;;4.60;;
68089;SDS011;54880;50.986;6.990;2023-06-26T06:44:05;13.13;;;4.83;;
68089;SDS011;54880;50.986;6.990;2023-06-26T06:46:30;11.20;;;5.00;;
68089;SDS011;54880;50.986;6.990;2023-06-26T06:48:56;10.97;;;4.40;;
68089;SDS011;54880;50.986;6.990;2023-06-26T06:51:21;11.93;;;4.60;;
68089;SDS011;54880;50.986;6.990;2023-06-26T06:53:46;13.87;;;4.40;;
68089;SDS011;54880;50.986;6.990;2023-06-26T06:56:12;13.70;;;4.90;;
68089;SDS011;54880;50.986;6.990;2023-06-26T06:58:37;10.70;;;4.90;;
68089;SDS011;54880;50.986;6.990;2023-06-26T07:01:02;11.35;;;4.65;;
68089;SDS011;54880;50.986;6.990;2023-06-26T07:03:29;11.25;;;4.70;;
68089;SDS011;54880;50.986;6.990;2023-06-26T07:05:55;12.98;;;5.15;;
68089;SDS011;54880;50.986;6.990;2023-06-26T07:08:20;11.73;;;5.00;;
68089;SDS011;54880;50.986;6.990;2023-06-26T07:10:45;11.10;;;4.77;;
68089;SDS011;54880;50.986;6.990;2023-06-26T07:13:11;14.63;;;4.67;;
68089;SDS011;54880;50.986;6.990;2023-06-26T07:15:36;12.37;;;4.50;;
68089;SDS011;54880;50.986;6.990;2023-06-26T07:18:01;11.63;;;4.65;;
68089;SDS011;54880;50.986;6.990;2023-06-26T07:20:27;13.20;;;5.27;;
68089;SDS011;54880;50.986;6.990;2023-06-26T07:22:52;13.30;;;5.10;;
68089;SDS011;54880;50.986;6.990;2023-06-26T07:25:17;11.33;;;6.17;;
68089;SDS011;54880;50.986;6.990;2023-06-26T07:27:43;12.37;;;7.37;;
68089;SDS011;54880;50.986;6.990;2023-06-26T07:30:09;16.35;;;9.60;;
68089;SDS011;54880;50.986;6.990;2023-06-26T07:32:35;17.57;;;9.37;;
68089;SDS011;54880;50.986;6.990;2023-06-26T07:35:00;13.27;;;7.88;;
68089;SDS011;54880;50.986;6.990;2023-06-26T07:37:25;12.73;;;6.67;;
68089;SDS011;54880;50.986;6.990;2023-06-26T07:39:50;13.57;;;6.00;;
68089;SDS011;54880;50.986;6.990;2023-06-26T07:42:16;14.13;;;5.50;;
68089;SDS011;54880;50.986;6.990;2023-06-26T07:44:43;15.40;;;7.75;;
68089;SDS011;54880;50.986;6.990;2023-06-26T07:47:09;15.30;;;7.83;;
68089;SDS011;54880;50.986;6.990;2023-06-26T07:49:34;18.63;;;7.47;;
68089;SDS011;54880;50.986;6.990;2023-06-26T07:51:59;14.57;;;7.90;;
68089;SDS011;54880;50.986;6.990;2023-06-26T07:54:25;12.53;;;6.87;;
68089;SDS011;54880;50.986;6.990;2023-06-26T07:57:00;13.40;;;6.00;;
68089;SDS011;54880;50.986;6.990;2023-06-26T07:59:27;9.98;;;5.18;;
68089;SDS011;54880;50.986;6.990;2023-06-26T08:01:53;14.63;;;5.20;;
68089;SDS011;54880;50.986;6.990;2023-06-26T08:04:19;14.10;;;5.03;;
68089;SDS011;54880;50.986;6.990;2023-06-26T08:06:45;11.32;;;5.00;;
68089;SDS011;54880;50.986;6.990;2023-06-26T08:09:11;11.40;;;5.85;;
68089;SDS011;54880;50.986;6.990;2023-06-26T08:11:37;14.38;;;5.78;;
68089;SDS011;54880;50.986;6.990;2023-06-26T08:14:03;15.77;;;5.20;;
68089;SDS011;54880;50.986;6.990;2023-06-26T08:16:28;11.93;;;4.83;;
68089;SDS011;54880;50.986;6.990;2023-06-26T08:18:53;12.80;;;4.67;;
68089;SDS011;54880;50.986;6.990;2023-06-26T08:21:18;12.10;;;5.43;;
68089;SDS011;54880;50.986;6.990;2023-06-26T08:23:44;12.97;;;5.00;;
68089;SDS011;54880;50.986;6.990;2023-06-26T08:26:09;14.67;;;5.00;;
68089;SDS011;54880;50.986;6.990;2023-06-26T08:28:34;10.93;;;4.83;;
68089;SDS011;54880;50.986;6.990;2023-06-26T08:30:59;13.27;;;5.40;;
68089;SDS011;54880;50.986;6.990;2023-06-26T08:33:25;15.63;;;4.97;;
68089;SDS011;54880;50.986;6.990;2023-06-26T08:35:50;14.03;;;5.67;;
68089;SDS011;54880;50.986;6.990;2023-06-26T08:38:16;11.73;;;5.67;;
68089;SDS011;54880;50.986;6.990;2023-06-26T08:40:41;12.47;;;5.43;;
68089;SDS011;54880;50.986;6.990;2023-06-26T08:43:06;14.05;;;5.03;;
68089;SDS011;54880;50.986;6.990;2023-06-26T08:45:31;13.43;;;5.07;;
68089;SDS011;54880;50.986;6.990;2023-06-26T08:47:58;15.00;;;5.10;;
68089;SDS011;54880;50.986;6.990;2023-06-26T08:50:25;14.88;;;5.47;;
68089;SDS011;54880;50.986;6.990;2023-06-26T08:55:38;10.90;;;5.15;;
68089;SDS011;54880;50.986;6.990;2023-06-26T08:58:06;14.82;;;5.15;;
68089;SDS011;54880;50.986;6.990;2023-06-26T09:00:31;15.23;;;5.87;;
68089;SDS011;54880;50.986;6.990;2023-06-26T09:02:56;12.50;;;5.10;;
68089;SDS011;54880;50.986;6.990;2023-06-26T09:05:22;11.97;;;5.17;;
68089;SDS011;54880;50.986;6.990;2023-06-26T09:07:47;12.73;;;4.93;;
68089;SDS011;54880;50.986;6.990;2023-06-26T09:10:12;15.00;;;4.87;;
68089;SDS011;54880;50.986;6.990;2023-06-26T09:12:37;10.40;;;5.13;;
68089;SDS011;54880;50.986;6.990;2023-06-26T09:15:03;12.40;;;5.00;;
68089;SDS011;54880;50.986;6.990;2023-06-26T09:17:38;14.48;;;4.38;;
68089;SDS011;54880;50.986;6.990;2023-06-26T09:20:05;12.10;;;4.78;;
68089;SDS011;54880;50.986;6.990;2023-06-26T09:22:33;11.65;;;4.93;;
68089;SDS011;54880;50.986;6.990;2023-06-26T09:24:58;13.77;;;5.07;;
68089;SDS011;54880;50.986;6.990;2023-06-26T09:27:24;10.97;;;4.10;;
68089;SDS011;54880;50.986;6.990;2023-06-26T09:29:50;13.30;;;4.73;;
68089;SDS011;54880;50.986;6.990;2023-06-26T09:32:15;16.00;;;4.17;;
68089;SDS011;54880;50.986;6.990;2023-06-26T09:34:41;13.73;;;4.57;;
68089;SDS011;54880;50.986;6.990;2023-06-26T09:37:07;11.35;;;4.57;;
68089;SDS011;54880;50.986;6.990;2023-06-26T09:39:33;14.83;;;4.57;;
68089;SDS011;54880;50.986;6.990;2023-06-26T09:41:58;14.23;;;4.50;;
68089;SDS011;54880;50.986;6.990;2023-06-26T09:44:24;11.07;;;3.80;;
68089;SDS011;54880;50.986;6.990;2023-06-26T09:46:49;14.73;;;4.90;;
68089;SDS011;54880;50.986;6.990;2023-06-26T09:49:14;11.87;;;4.60;;
68089;SDS011;54880;50.986;6.990;2023-06-26T09:51:41;15.95;;;4.90;;
68089;SDS011;54880;50.986;6.990;2023-06-26T09:54:07;10.70;;;4.67;;
68089;SDS011;54880;50.986;6.990;2023-06-26T09:56:32;14.25;;;4.65;;
68089;SDS011;54880;50.986;6.990;2023-06-26T09:58:59;10.90;;;4.00;;
68089;SDS011;54880;50.986;6.990;2023-06-26T10:01:24;11.30;;;3.95;;
68089;SDS011;54880;50.986;6.990;2023-06-26T10:03:50;12.13;;;4.10;;
68089;SDS011;54880;50.986;6.990;2023-06-26T10:06:16;12.70;;;4.10;;
68089;SDS011;54880;50.986;6.990;2023-06-26T10:08:43;12.35;;;4.78;;
68089;SDS011;54880;50.986;6.990;2023-06-26T10:11:11;14.82;;;4.53;;
68089;SDS011;54880;50.986;6.990;2023-06-26T10:13:39;11.52;;;4.20;;
68089;SDS011;54880;50.986;6.990;2023-06-26T10:16:06;12.68;;;4.05;;
68089;SDS011;54880;50.986;6.990;2023-06-26T10:18:32;17.10;;;4.35;;
68089;SDS011;54880;50.986;6.990;2023-06-26T10:20:58;10.25;;;3.80;;
68089;SDS011;54880;50.986;6.990;2023-06-26T10:23:24;12.88;;;3.72;;
68089;SDS011;54880;50.986;6.990;2023-06-26T10:25:51;12.48;;;4.18;;
68089;SDS011;54880;50.986;6.990;2023-06-26T10:28:17;12.03;;;4.00;;
68089;SDS011;54880;50.986;6.990;2023-06-26T10:30:43;12.80;;;3.97;;
68089;SDS011;54880;50.986;6.990;2023-06-26T10:33:09;14.65;;;4.07;;
68089;SDS011;54880;50.986;6.990;2023-06-26T10:35:40;10.17;;;3.30;;
68089;SDS011;54880;50.986;6.990;2023-06-26T10:38:06;10.25;;;3.50;;
68089;SDS011;54880;50.986;6.990;2023-06-26T10:40:42;11.15;;;3.83;;
68089;SDS011;54880;50.986;6.990;2023-06-26T10:43:08;12.80;;;3.40;;
68089;SDS011;54880;50.986;6.990;2023-06-26T10:45:33;8.60;;;3.53;;
68089;SDS011;54880;50.986;6.990;2023-06-26T10:47:59;11.68;;;3.33;;
68089;SDS011;54880;50.986;6.990;2023-06-26T10:53:06;6.97;;;2.87;;
68089;SDS011;54880;50.986;6.990;2023-06-26T10:55:32;9.55;;;3.33;;
68089;SDS011;54880;50.986;6.990;2023-06-26T10:57:57;8.95;;;3.30;;
68089;SDS011;54880;50.986;6.990;2023-06-26T11:00:22;9.35;;;3.55;;
68089;SDS011;54880;50.986;6.990;2023-06-26T11:02:48;10.80;;;3.00;;
68089;SDS011;54880;50.986;6.990;2023-06-26T11:05:23;8.52;;;2.80;;
68089;SDS011;54880;50.986;6.990;2023-06-26T11:08:07;7.47;;;2.67;;
68089;SDS011;54880;50.986;6.990;2023-06-26T11:10:48;6.38;;;2.42;;
68089;SDS011;54880;50.986;6.990;2023-06-26T11:13:14;8.60;;;2.42;;
68089;SDS011;54880;50.986;6.990;2023-06-26T11:15:42;8.70;;;3.00;;
68089;SDS011;54880;50.986;6.990;2023-06-26T11:18:07;10.90;;;2.70;;
68089;SDS011;54880;50.986;6.990;2023-06-26T11:20:33;8.80;;;2.70;;
68089;SDS011;54880;50.986;6.990;2023-06-26T11:22:58;8.80;;;2.70;;
68089;SDS011;54880;50.986;6.990;2023-06-26T11:25:23;6.90;;;2.65;;
68089;SDS011;54880;50.986;6.990;2023-06-26T11:27:49;7.53;;;2.40;;
68089;SDS011;54880;50.986;6.990;2023-06-26T11:30:24;10.03;;;3.00;;
68089;SDS011;54880;50.986;6.990;2023-06-26T11:32:49;9.70;;;2.70;;
68089;SDS011;54880;50.986;6.990;2023-06-26T11:35:24;11.77;;;3.03;;
68089;SDS011;54880;50.986;6.990;2023-06-26T11:38:02;9.98;;;2.90;;
68089;SDS011;54880;50.986;6.990;2023-06-26T11:40:31;7.88;;;3.10;;
68089;SDS011;54880;50.986;6.990;2023-06-26T11:42:58;9.15;;;3.28;;
68089;SDS011;54880;50.986;6.990;2023-06-26T11:45:24;10.25;;;3.20;;
68089;SDS011;54880;50.986;6.990;2023-06-26T11:47:49;10.60;;;3.33;;
68089;SDS011;54880;50.986;6.990;2023-06-26T11:50:15;9.35;;;2.40;;
68089;SDS011;54880;50.986;6.990;2023-06-26T11:52:42;8.48;;;2.90;;
68089;SDS011;54880;50.986;6.990;2023-06-26T11:55:08;11.07;;;2.63;;
68089;SDS011;54880;50.986;6.990;2023-06-26T11:57:33;8.27;;;2.35;;
68089;SDS011;54880;50.986;6.990;2023-06-26T11:59:58;8.77;;;2.70;;
68089;SDS011;54880;50.986;6.990;2023-06-26T12:02:35;7.35;;;2.83;;
68089;SDS011;54880;50.986;6.990;2023-06-26T12:05:00;9.73;;;2.93;;
68089;SDS011;54880;50.986;6.990;2023-06-26T12:07:25;11.13;;;2.70;;
68089;SDS011;54880;50.986;6.990;2023-06-26T12:09:51;9.25;;;2.88;;
68089;SDS011;54880;50.986;6.990;2023-06-26T12:12:16;9.13;;;2.67;;
68089;SDS011;54880;50.986;6.990;2023-06-26T12:14:42;11.07;;;2.60;;
68089;SDS011;54880;50.986;6.990;2023-06-26T12:17:09;10.52;;;2.53;;
68089;SDS011;54880;50.986;6.990;2023-06-26T12:19:38;17.48;;;3.40;;
68089;SDS011;54880;50.986;6.990;2023-06-26T12:22:07;10.95;;;2.40;;
68089;SDS011;54880;50.986;6.990;2023-06-26T12:24:33;10.20;;;2.67;;
68089;SDS011;54880;50.986;6.990;2023-06-26T12:26:58;7.47;;;2.33;;
68089;SDS011;54880;50.986;6.990;2023-06-26T12:29:31;11.37;;;2.80;;
68089;SDS011;54880;50.986;6.990;2023-06-26T12:31:57;8.70;;;2.63;;
68089;SDS011;54880;50.986;6.990;2023-06-26T12:34:27;10.53;;;2.40;;
68089;SDS011;54880;50.986;6.990;2023-06-26T12:36:53;9.20;;;2.33;;
68089;SDS011;54880;50.986;6.990;2023-06-26T12:39:19;8.43;;;2.57;;
68089;SDS011;54880;50.986;6.990;2023-06-26T12:41:48;9.63;;;2.65;;
68089;SDS011;54880;50.986;6.990;2023-06-26T12:44:20;13.82;;;2.63;;
68089;SDS011;54880;50.986;6.990;2023-06-26T12:46:46;9.60;;;2.13;;
68089;SDS011;54880;50.986;6.990;2023-06-26T12:49:12;8.93;;;2.10;;
68089;SDS011;54880;50.986;6.990;2023-06-26T12:51:37;8.40;;;2.30;;
68089;SDS011;54880;50.986;6.990;2023-06-26T12:54:02;12.03;;;1.90;;
68089;SDS011;54880;50.986;6.990;2023-06-26T12:56:27;10.00;;;2.20;;
68089;SDS011;54880;50.986;6.990;2023-06-26T12:58:53;8.47;;;2.13;;
68089;SDS011;54880;50.986;6.990;2023-06-26T13:01:18;9.63;;;2.10;;
68089;SDS011;54880;50.986;6.990;2023-06-26T13:03:44;7.65;;;1.90;;
68089;SDS011;54880;50.986;6.990;2023-06-26T13:06:10;8.80;;;2.37;;
68089;SDS011;54880;50.986;6.990;2023-06-26T13:08:35;10.03;;;2.23;;
68089;SDS011;54880;50.986;6.990;2023-06-26T13:11:01;7.93;;;1.90;;
68089;SDS011;54880;50.986;6.990;2023-06-26T13:13:27;9.17;;;1.70;;
68089;SDS011;54880;50.986;6.990;2023-06-26T13:15:52;6.07;;;1.80;;
68089;SDS011;54880;50.986;6.990;2023-06-26T13:18:18;7.10;;;1.70;;
68089;SDS011;54880;50.986;6.990;2023-06-26T13:20:43;8.07;;;2.30;;
68089;SDS011;54880;50.986;6.990;2023-06-26T13:23:08;8.30;;;2.20;;
68089;SDS011;54880;50.986;6.990;2023-06-26T13:25:33;6.87;;;1.70;;
68089;SDS011;54880;50.986;6.990;2023-06-26T13:27:59;10.67;;;1.90;;
68089;SDS011;54880;50.986;6.990;2023-06-26T13:30:25;9.60;;;1.60;;
68089;SDS011;54880;50.986;6.990;2023-06-26T13:32:50;7.85;;;1.95;;
68089;SDS011;54880;50.986;6.990;2023-06-26T13:35:15;8.90;;;1.80;;
68089;SDS011;54880;50.986;6.990;2023-06-26T13:37:41;6.10;;;1.50;;
68089;SDS011;54880;50.986;6.990;2023-06-26T13:40:06;10.03;;;1.83;;
68089;SDS011;54880;50.986;6.990;2023-06-26T13:42:32;9.90;;;2.00;;
68089;SDS011;54880;50.986;6.990;2023-06-26T13:44:57;8.60;;;1.63;;
68089;SDS011;54880;50.986;6.990;2023-06-26T13:47:23;9.87;;;1.97;;
68089;SDS011;54880;50.986;6.990;2023-06-26T13:49:48;8.90;;;1.73;;
68089;SDS011;54880;50.986;6.990;2023-06-26T13:52:13;16.00;;;2.07;;
68089;SDS011;54880;50.986;6.990;2023-06-26T13:54:38;7.10;;;1.67;;
68089;SDS011;54880;50.986;6.990;2023-06-26T13:57:08;8.63;;;1.88;;
68089;SDS011;54880;50.986;6.990;2023-06-26T13:59:33;6.90;;;1.70;;
68089;SDS011;54880;50.986;6.990;2023-06-26T14:01:59;8.13;;;1.70;;
68089;SDS011;54880;50.986;6.990;2023-06-26T14:04:24;7.90;;;2.20;;
68089;SDS011;54880;50.986;6.990;2023-06-26T14:06:50;10.70;;;1.73;;
68089;SDS011;54880;50.986;6.990;2023-06-26T14:09:15;8.90;;;1.80;;
68089;SDS011;54880;50.986;6.990;2023-06-26T14:11:40;10.53;;;1.90;;
68089;SDS011;54880;50.986;6.990;2023-06-26T14:14:06;8.43;;;1.60;;
68089;SDS011;54880;50.986;6.990;2023-06-26T14:16:31;10.43;;;1.70;;
68089;SDS011;54880;50.986;6.990;2023-06-26T14:18:56;12.57;;;1.87;;
68089;SDS011;54880;50.986;6.990;2023-06-26T14:21:22;8.98;;;1.80;;
68089;SDS011;54880;50.986;6.990;2023-06-26T14:23:47;8.23;;;1.87;;
68089;SDS011;54880;50.986;6.990;2023-06-26T14:26:12;8.53;;;1.70;;
68089;SDS011;54880;50.986;6.990;2023-06-26T14:28:38;5.90;;;1.50;;
68089;SDS011;54880;50.986;6.990;2023-06-26T14:31:04;7.47;;;1.73;;
68089;SDS011;54880;50.986;6.990;2023-06-26T14:33:29;9.98;;;1.70;;
68089;SDS011;54880;50.986;6.990;2023-06-26T14:35:54;5.63;;;1.57;;
68089;SDS011;54880;50.986;6.990;2023-06-26T14:38:20;9.23;;;1.80;;
68089;SDS011;54880;50.986;6.990;2023-06-26T14:40:45;7.47;;;1.80;;
68089;SDS011;54880;50.986;6.990;2023-06-26T14:43:10;12.90;;;1.77;;
68089;SDS011;54880;50.986;6.990;2023-06-26T14:45:35;9.57;;;2.00;;